Wind From: 11-12-2017 12:03 Until: 12-12-2017 06:00 warning for: Wind Level: Orange info button

Power and phone distribution networks may be disrupted for relatively long periods., Roofs and chimneys can be damaged. , Tree branches may break. , Vehicles can be deported. , Traffic may be disrupted, particularly on secondary roads in forest areas. Limit your trips. , Limit your speed in highway driving, especially if you drive a vehicle or hitch sensitive to wind. , Do not go for walks in forests or along the coast., In town, be vigilant against possible falling objects., Do not work on roofs and do not touch any electrical line fallen on the ground., Store or secure sensitive objects to wind or likely to be damaged., Always install power generators outside buildings. 


Meteo18 Weather Cam more information Meteo18 Weather Cam


Thunder radar more information blitzortung!


Rain radar more information rain snow radar


Visit our other weather sites:

Template documentation
and downloads

And another site



Weather Underground History page Text

Daily Summary for November 9, 2016 Units:  Metric    English   Both
« Previous Day
Next Day »
Daily Weekly Monthly Yearly Custom
  High: Low: Average:
Temperature: 10.1 °C 3.3 °C 6.5 °C
Dew Point: 7.2 °C 2.7 °C 4.9 °C
Humidity: 98 % 76 % 90 %
Wind Speed: 37.0 km/h 0.0 km/h 9.7 km/h
Wind Gust: 49.9 km/h - -
Wind:- - SW
Pressure: 1012.8 hPa 999.9 hPa -
Precipitation: 15.5 mm    
Historical Graphs
 
 
Tabular Data for November 9, 2016
Time Temperature Dew Point Pressure Wind Wind Speed Wind Gust Humidity Rainfall Rate (Hourly)
00:02 3.3 °C 2.7 °C 1011.4 hPa SSW 1.6 km/h 4.8 km/h 96 % 0.0 mm
00:12 3.4 °C 2.8 °C 1011.1 hPa SSW 1.6 km/h 3.2 km/h 96 % 0.0 mm
00:17 3.5 °C 2.9 °C 1011.1 hPa Calm   4.8 km/h 96 % 0.0 mm
00:22 3.6 °C 3.0 °C 1010.7 hPa SSW 3.2 km/h 4.8 km/h 96 % 0.0 mm
00:27 3.6 °C 3.0 °C 1010.7 hPa SSE 1.6 km/h 6.4 km/h 96 % 0.0 mm
00:32 3.6 °C 3.0 °C 1010.4 hPa South 1.6 km/h 6.4 km/h 96 % 0.0 mm
00:37 3.6 °C 3.0 °C 1010.4 hPa Calm   6.4 km/h 96 % 0.0 mm
00:42 3.6 °C 3.0 °C 1010.0 hPa Calm   6.4 km/h 96 % 0.0 mm
00:47 3.6 °C 3.0 °C 1010.0 hPa Calm   6.4 km/h 96 % 0.0 mm
00:52 3.6 °C 3.0 °C 1010.0 hPa South 1.6 km/h 4.8 km/h 96 % 0.0 mm
00:57 3.7 °C 3.1 °C 1009.7 hPa SSE 1.6 km/h 4.8 km/h 96 % 0.0 mm
01:02 3.7 °C 3.0 °C 1009.7 hPa Calm   6.4 km/h 95 % 0.0 mm
01:07 3.7 °C 3.0 °C 1009.7 hPa SSE 1.6 km/h 6.4 km/h 95 % 0.0 mm
01:12 3.7 °C 3.0 °C 1009.7 hPa Calm   6.4 km/h 95 % 0.0 mm
01:17 3.7 °C 3.0 °C 1009.4 hPa Calm   4.8 km/h 95 % 0.0 mm
01:22 3.7 °C 3.0 °C 1009.4 hPa SSW 1.6 km/h 1.6 km/h 95 % 0.0 mm
01:27 3.7 °C 3.0 °C 1009.4 hPa SSE 1.6 km/h 3.2 km/h 95 % 0.0 mm
01:32 3.8 °C 3.1 °C 1009.4 hPa SSW 3.2 km/h 3.2 km/h 95 % 0.0 mm
01:37 3.8 °C 3.1 °C 1009.0 hPa SSW 1.6 km/h 6.4 km/h 95 % 0.0 mm
01:42 3.8 °C 3.1 °C 1009.0 hPa Calm   6.4 km/h 95 % 0.0 mm
01:47 3.8 °C 3.1 °C 1008.7 hPa Calm   6.4 km/h 95 % 0.0 mm
01:52 3.8 °C 2.9 °C 1008.7 hPa SSW 1.6 km/h 4.8 km/h 94 % 0.0 mm
01:57 3.8 °C 2.9 °C 1008.4 hPa SSW 1.6 km/h 4.8 km/h 94 % 0.0 mm
02:02 3.7 °C 2.8 °C 1008.7 hPa SSE 3.2 km/h 4.8 km/h 94 % 0.0 mm
02:12 3.8 °C 2.9 °C 1008.4 hPa South 1.6 km/h 6.4 km/h 94 % 0.0 mm
02:17 3.7 °C 2.8 °C 1008.4 hPa SSE 1.6 km/h 6.4 km/h 94 % 0.0 mm
02:22 3.7 °C 2.8 °C 1008.0 hPa SSW 1.6 km/h 6.4 km/h 94 % 0.0 mm
02:27 3.7 °C 2.8 °C 1008.0 hPa Calm   6.4 km/h 94 % 0.0 mm
02:32 3.7 °C 2.8 °C 1008.0 hPa SSE 1.6 km/h 4.8 km/h 94 % 0.3 mm
02:37 3.7 °C 3.0 °C 1007.7 hPa South 3.2 km/h 4.8 km/h 95 % 0.3 mm
02:42 3.8 °C 3.1 °C 1007.7 hPa Calm   4.8 km/h 95 % 0.3 mm
02:47 3.8 °C 3.1 °C 1007.3 hPa SSE 3.2 km/h 8.0 km/h 95 % 0.3 mm
02:52 3.8 °C 3.1 °C 1007.3 hPa South 1.6 km/h 8.0 km/h 95 % 0.5 mm
02:57 3.8 °C 3.1 °C 1007.0 hPa SE 1.6 km/h 8.0 km/h 95 % 0.5 mm
03:02 3.9 °C 3.2 °C 1007.0 hPa SW 1.6 km/h 8.0 km/h 95 % 0.5 mm
03:07 3.9 °C 3.2 °C 1006.7 hPa SE 1.6 km/h 8.0 km/h 95 % 0.5 mm
03:12 3.9 °C 3.2 °C 1006.7 hPa SSW 1.6 km/h 8.0 km/h 95 % 0.5 mm
03:17 3.9 °C 3.2 °C 1006.7 hPa SSE 3.2 km/h 9.7 km/h 95 % 0.5 mm
03:22 4.0 °C 3.3 °C 1006.3 hPa SSE 1.6 km/h 11.3 km/h 95 % 0.8 mm
03:32 4.0 °C 3.3 °C 1006.3 hPa SSE 3.2 km/h 12.9 km/h 95 % 0.5 mm
03:37 4.0 °C 3.3 °C 1006.0 hPa SE 3.2 km/h 12.9 km/h 95 % 0.5 mm
03:42 4.0 °C 3.3 °C 1006.0 hPa SE 4.8 km/h 9.7 km/h 95 % 0.5 mm
03:47 3.9 °C 3.2 °C 1006.0 hPa SSE 3.2 km/h 9.7 km/h 95 % 0.8 mm
03:52 3.9 °C 3.2 °C 1005.6 hPa Calm   12.9 km/h 95 % 0.5 mm
03:57 3.9 °C 3.2 °C 1005.6 hPa South 4.8 km/h 12.9 km/h 95 % 0.8 mm
04:02 3.9 °C 3.2 °C 1005.6 hPa SSE 3.2 km/h 12.9 km/h 95 % 0.8 mm
04:07 3.9 °C 3.2 °C 1005.3 hPa SSW 3.2 km/h 12.9 km/h 95 % 0.8 mm
04:12 3.9 °C 3.3 °C 1005.3 hPa South 4.8 km/h 12.9 km/h 96 % 0.8 mm
04:17 3.9 °C 3.3 °C 1005.3 hPa SW 1.6 km/h 14.5 km/h 96 % 1.0 mm
04:22 3.9 °C 3.3 °C 1005.0 hPa SSW 1.6 km/h 14.5 km/h 96 % 0.8 mm
04:27 3.9 °C 3.3 °C 1005.0 hPa SSE 6.4 km/h 14.5 km/h 96 % 1.0 mm
04:32 3.9 °C 3.3 °C 1005.0 hPa SE 3.2 km/h 11.3 km/h 96 % 1.0 mm
04:42 4.0 °C 3.4 °C 1004.6 hPa SSE 6.4 km/h 19.3 km/h 96 % 1.0 mm
04:47 4.0 °C 3.4 °C 1004.6 hPa SSE 4.8 km/h 19.3 km/h 96 % 1.3 mm
04:52 4.0 °C 3.4 °C 1004.6 hPa SE 9.7 km/h 19.3 km/h 96 % 1.3 mm
04:57 4.1 °C 3.5 °C 1004.3 hPa East 3.2 km/h 12.9 km/h 96 % 1.3 mm
05:02 4.1 °C 3.5 °C 1004.3 hPa SW 8.0 km/h 12.9 km/h 96 % 1.0 mm
05:12 4.0 °C 3.4 °C 1003.9 hPa ESE 4.8 km/h 12.9 km/h 96 % 1.3 mm
05:17 4.0 °C 3.4 °C 1003.9 hPa SE 1.6 km/h 12.9 km/h 96 % 1.3 mm
05:22 4.0 °C 3.4 °C 1003.9 hPa South 1.6 km/h 16.1 km/h 96 % 1.0 mm
05:32 4.0 °C 3.4 °C 1003.9 hPa WSW 1.6 km/h 16.1 km/h 96 % 1.3 mm
05:37 4.0 °C 3.4 °C 1003.9 hPa SW 4.8 km/h 12.9 km/h 96 % 1.3 mm
05:42 4.0 °C 3.4 °C 1003.6 hPa South 4.8 km/h 14.5 km/h 96 % 1.3 mm
05:47 4.1 °C 3.5 °C 1003.6 hPa South 6.4 km/h 14.5 km/h 96 % 1.3 mm
05:52 4.1 °C 3.5 °C 1003.3 hPa SE 3.2 km/h 14.5 km/h 96 % 1.5 mm
05:57 4.2 °C 3.6 °C 1003.3 hPa ESE 9.7 km/h 12.9 km/h 96 % 1.5 mm
06:02 4.2 °C 3.6 °C 1003.3 hPa SW 6.4 km/h 12.9 km/h 96 % 1.5 mm
06:07 4.2 °C 3.6 °C 1002.9 hPa SE 3.2 km/h 19.3 km/h 96 % 1.8 mm
06:12 4.2 °C 3.6 °C 1002.9 hPa South 6.4 km/h 19.3 km/h 96 % 2.0 mm
06:17 4.2 °C 3.6 °C 1002.9 hPa SSE 6.4 km/h 19.3 km/h 96 % 2.0 mm
06:22 4.2 °C 3.6 °C 1002.6 hPa SSE 3.2 km/h 19.3 km/h 96 % 2.3 mm
06:27 4.3 °C 3.7 °C 1002.6 hPa SSE 8.0 km/h 17.7 km/h 96 % 2.0 mm
06:32 4.3 °C 3.7 °C 1002.3 hPa SW 3.2 km/h 14.5 km/h 96 % 2.3 mm
06:42 4.3 °C 3.7 °C 1002.3 hPa SE 9.7 km/h 17.7 km/h 96 % 2.3 mm
06:52 4.3 °C 3.7 °C 1001.9 hPa SSW 9.7 km/h 20.9 km/h 96 % 2.3 mm
06:57 4.3 °C 3.7 °C 1001.9 hPa South 12.9 km/h 20.9 km/h 96 % 2.3 mm
07:02 4.3 °C 3.7 °C 1001.9 hPa SE 3.2 km/h 20.9 km/h 96 % 2.3 mm
07:12 4.3 °C 3.7 °C 1001.6 hPa NE 6.4 km/h 20.9 km/h 96 % 3.3 mm
07:17 4.3 °C 3.7 °C 1001.2 hPa SSE 6.4 km/h 20.9 km/h 96 % 3.0 mm
07:22 4.4 °C 3.8 °C 1001.2 hPa East 8.0 km/h 20.9 km/h 96 % 2.8 mm
07:32 4.4 °C 3.8 °C 1001.2 hPa South 4.8 km/h 17.7 km/h 96 % 2.5 mm
07:37 4.4 °C 3.8 °C 1001.2 hPa ESE 4.8 km/h 25.7 km/h 96 % 2.3 mm
07:47 4.4 °C 3.8 °C 1000.9 hPa SE 4.8 km/h 17.7 km/h 96 % 2.3 mm
07:57 4.5 °C 3.9 °C 1000.9 hPa SSE 12.9 km/h 27.4 km/h 96 % 1.8 mm
08:07 4.5 °C 3.8 °C 1000.6 hPa ESE 4.8 km/h 27.4 km/h 95 % 1.5 mm
08:12 4.4 °C 3.7 °C 1000.6 hPa SSE 4.8 km/h 27.4 km/h 95 % 1.5 mm
08:17 4.4 °C 3.8 °C 1000.6 hPa SW 16.1 km/h 25.7 km/h 96 % 1.5 mm
08:22 4.6 °C 4.0 °C 1000.6 hPa South 1.6 km/h 25.7 km/h 96 % 1.5 mm
08:27 4.6 °C 4.0 °C 1000.2 hPa East 11.3 km/h 27.4 km/h 96 % 1.8 mm
08:32 4.6 °C 4.0 °C 1000.2 hPa ESE 20.9 km/h 27.4 km/h 96 % 2.3 mm
08:37 4.6 °C 4.0 °C 1000.2 hPa SSE 12.9 km/h 24.1 km/h 96 % 2.3 mm
08:42 4.6 °C 4.0 °C 1000.2 hPa SE 11.3 km/h 32.2 km/h 96 % 2.3 mm
08:47 4.6 °C 4.0 °C 1000.2 hPa SSE 6.4 km/h 32.2 km/h 96 % 2.5 mm
08:52 4.7 °C 4.1 °C 1000.2 hPa South 3.2 km/h 27.4 km/h 96 % 2.8 mm
08:57 4.7 °C 4.1 °C 999.9 hPa SSE 6.4 km/h 27.4 km/h 96 % 2.8 mm
09:02 4.7 °C 4.1 °C 999.9 hPa SE 1.6 km/h 27.4 km/h 96 % 2.3 mm
09:07 4.8 °C 4.2 °C 999.9 hPa SSE 12.9 km/h 24.1 km/h 96 % 2.3 mm
09:12 4.8 °C 4.2 °C 999.9 hPa SE 8.0 km/h 24.1 km/h 96 % 2.0 mm
09:17 4.9 °C 4.3 °C 999.9 hPa South 4.8 km/h 24.1 km/h 96 % 1.8 mm
09:22 4.9 °C 4.3 °C 999.9 hPa SSE 1.6 km/h 24.1 km/h 96 % 1.5 mm
09:32 4.9 °C 4.3 °C 999.9 hPa ESE 4.8 km/h 22.5 km/h 96 % 1.3 mm
09:37 4.9 °C 4.3 °C 1000.2 hPa ESE 8.0 km/h 16.1 km/h 96 % 1.3 mm
09:42 4.9 °C 4.5 °C 1000.2 hPa Calm   16.1 km/h 97 % 1.5 mm
09:47 5.1 °C 4.7 °C 1000.2 hPa SE 3.2 km/h 11.3 km/h 97 % 1.3 mm
09:52 5.1 °C 4.7 °C 1000.6 hPa East 1.6 km/h 11.3 km/h 97 % 1.5 mm
09:57 5.2 °C 4.8 °C 1000.6 hPa SW 1.6 km/h 11.3 km/h 97 % 1.5 mm
10:02 5.3 °C 4.9 °C 1000.9 hPa NW 1.6 km/h 11.3 km/h 97 % 1.5 mm
10:12 5.3 °C 4.9 °C 1000.9 hPa ENE 3.2 km/h 6.4 km/h 97 % 2.0 mm
10:17 5.4 °C 5.0 °C 1001.2 hPa Calm   6.4 km/h 97 % 2.0 mm
10:22 5.5 °C 5.1 °C 1001.6 hPa WNW 1.6 km/h 4.8 km/h 97 % 2.3 mm
10:27 5.6 °C 5.2 °C 1001.6 hPa WNW 1.6 km/h 4.8 km/h 97 % 2.3 mm
10:32 5.7 °C 5.3 °C 1001.6 hPa NW 3.2 km/h 4.8 km/h 97 % 2.3 mm
10:42 5.7 °C 5.3 °C 1002.3 hPa WNW 3.2 km/h 4.8 km/h 97 % 2.3 mm
10:47 5.7 °C 5.3 °C 1002.3 hPa Calm   4.8 km/h 97 % 2.0 mm
10:52 5.8 °C 5.4 °C 1002.3 hPa West 1.6 km/h 3.2 km/h 97 % 2.0 mm
11:02 6.7 °C 6.4 °C 1002.6 hPa West 14.5 km/h 20.9 km/h 98 % 1.8 mm
11:07 7.1 °C 6.7 °C 1002.6 hPa NW 4.8 km/h 25.7 km/h 97 % 2.0 mm
11:12 7.2 °C 6.6 °C 1002.9 hPa West 12.9 km/h 25.7 km/h 96 % 2.0 mm
11:17 7.4 °C 6.7 °C 1002.9 hPa WNW 14.5 km/h 25.7 km/h 95 % 1.8 mm
11:22 7.6 °C 6.9 °C 1002.9 hPa WNW 16.1 km/h 29.0 km/h 95 % 1.5 mm
11:27 7.7 °C 6.9 °C 1002.9 hPa West 14.5 km/h 29.0 km/h 95 % 1.5 mm
11:32 7.8 °C 7.0 °C 1002.9 hPa West 24.1 km/h 33.8 km/h 95 % 1.3 mm
11:37 8.0 °C 7.1 °C 1003.3 hPa WSW 19.3 km/h 40.2 km/h 94 % 1.3 mm
11:42 8.1 °C 7.0 °C 1003.3 hPa NNW 37.0 km/h 40.2 km/h 93 % 1.0 mm
11:47 8.2 °C 7.1 °C 1003.6 hPa WNW 20.9 km/h 40.2 km/h 93 % 1.0 mm
11:52 8.2 °C 7.1 °C 1003.6 hPa WNW 29.0 km/h 40.2 km/h 93 % 0.8 mm
11:57 8.2 °C 7.1 °C 1003.9 hPa WNW 19.3 km/h 40.2 km/h 93 % 0.5 mm
12:02 8.2 °C 7.0 °C 1003.9 hPa WNW 29.0 km/h 35.4 km/h 92 % 0.5 mm
12:07 8.3 °C 6.9 °C 1003.9 hPa West 14.5 km/h 38.6 km/h 91 % 0.5 mm
12:12 8.5 °C 7.0 °C 1003.9 hPa WNW 20.9 km/h 41.8 km/h 90 % 0.3 mm
12:17 8.7 °C 7.2 °C 1003.9 hPa WSW 16.1 km/h 41.8 km/h 90 % 0.3 mm
12:22 8.9 °C 7.2 °C 1003.9 hPa WNW 29.0 km/h 41.8 km/h 89 % 0.3 mm
12:32 8.9 °C 7.2 °C 1004.6 hPa WNW 11.3 km/h 41.8 km/h 89 % 0.3 mm
12:37 8.9 °C 7.0 °C 1004.6 hPa West 20.9 km/h 41.8 km/h 88 % 0.3 mm
12:42 8.8 °C 6.9 °C 1004.6 hPa NW 14.5 km/h 41.8 km/h 88 % 0.3 mm
12:47 8.8 °C 6.8 °C 1004.6 hPa West 22.5 km/h 41.8 km/h 87 % 0.3 mm
12:52 8.8 °C 6.9 °C 1005.0 hPa WNW 16.1 km/h 38.6 km/h 88 % 0.3 mm
12:57 8.9 °C 6.9 °C 1005.0 hPa West 20.9 km/h 35.4 km/h 87 % 0.3 mm
13:02 9.1 °C 7.1 °C 1005.3 hPa WNW 24.1 km/h 35.4 km/h 87 % 0.3 mm
13:07 9.1 °C 6.9 °C 1005.3 hPa WNW 17.7 km/h 33.8 km/h 86 % 0.3 mm
13:12 9.1 °C 6.5 °C 1005.3 hPa West 27.4 km/h 32.2 km/h 84 % 0.0 mm
13:17 9.1 °C 6.5 °C 1005.3 hPa WNW 12.9 km/h 45.1 km/h 84 % 0.0 mm
13:22 9.1 °C 6.5 °C 1005.3 hPa West 12.9 km/h 45.1 km/h 84 % 0.0 mm
13:27 9.2 °C 6.5 °C 1005.3 hPa West 16.1 km/h 35.4 km/h 83 % 0.0 mm
13:32 9.3 °C 6.6 °C 1005.6 hPa WNW 12.9 km/h 37.0 km/h 83 % 0.0 mm
13:37 9.3 °C 6.6 °C 1005.6 hPa West 20.9 km/h 37.0 km/h 83 % 0.0 mm
13:42 9.4 °C 6.3 °C 1005.6 hPa WNW 16.1 km/h 43.4 km/h 81 % 0.0 mm
13:47 9.3 °C 6.0 °C 1005.6 hPa NW 32.2 km/h 43.4 km/h 80 % 0.0 mm
13:52 9.4 °C 6.5 °C 1005.6 hPa WNW 19.3 km/h 43.4 km/h 82 % 0.0 mm
13:57 9.4 °C 6.1 °C 1005.6 hPa West 20.9 km/h 35.4 km/h 80 % 0.0 mm
14:02 9.4 °C 5.9 °C 1006.0 hPa WSW 19.3 km/h 40.2 km/h 79 % 0.0 mm
14:07 9.4 °C 5.9 °C 1006.0 hPa West 25.7 km/h 40.2 km/h 79 % 0.0 mm
14:12 9.4 °C 6.5 °C 1006.0 hPa West 11.3 km/h 40.2 km/h 82 % 0.0 mm
14:17 9.4 °C 6.3 °C 1006.3 hPa West 14.5 km/h 35.4 km/h 81 % 0.0 mm
14:22 9.4 °C 6.3 °C 1006.3 hPa West 17.7 km/h 30.6 km/h 81 % 0.0 mm
14:27 9.3 °C 6.4 °C 1006.3 hPa WSW 16.1 km/h 32.2 km/h 82 % 0.0 mm
14:32 9.3 °C 6.2 °C 1006.3 hPa West 17.7 km/h 32.2 km/h 81 % 0.0 mm
14:37 9.3 °C 6.0 °C 1006.3 hPa WNW 24.1 km/h 25.7 km/h 80 % 0.0 mm
14:42 9.3 °C 5.8 °C 1006.7 hPa West 11.3 km/h 32.2 km/h 79 % 0.0 mm
14:57 9.4 °C 5.9 °C 1006.7 hPa WNW 17.7 km/h 33.8 km/h 79 % 0.0 mm
15:02 9.4 °C 5.9 °C 1006.7 hPa WSW 19.3 km/h 33.8 km/h 79 % 0.0 mm
15:07 9.5 °C 5.7 °C 1007.0 hPa WSW 20.9 km/h 29.0 km/h 77 % 0.0 mm
15:12 9.5 °C 5.7 °C 1007.0 hPa SW 6.4 km/h 32.2 km/h 77 % 0.0 mm
15:17 9.6 °C 6.0 °C 1007.0 hPa West 6.4 km/h 32.2 km/h 78 % 0.0 mm
15:22 9.6 °C 5.8 °C 1007.0 hPa WSW 24.1 km/h 32.2 km/h 77 % 0.0 mm
15:27 9.6 °C 6.0 °C 1007.3 hPa WNW 17.7 km/h 32.2 km/h 78 % 0.0 mm
15:32 9.7 °C 6.0 °C 1007.3 hPa West 17.7 km/h 37.0 km/h 78 % 0.0 mm
15:37 9.9 °C 6.1 °C 1007.3 hPa West 37.0 km/h 37.0 km/h 77 % 0.0 mm
15:42 10.1 °C 6.3 °C 1007.7 hPa WNW 11.3 km/h 49.9 km/h 77 % 0.0 mm
15:47 10.1 °C 6.3 °C 1007.7 hPa WSW 20.9 km/h 49.9 km/h 77 % 0.0 mm
15:52 9.9 °C 5.9 °C 1007.7 hPa West 11.3 km/h 49.9 km/h 76 % 0.0 mm
16:02 9.6 °C 5.8 °C 1008.0 hPa WNW 12.9 km/h 40.2 km/h 77 % 0.0 mm
16:07 9.3 °C 5.7 °C 1008.4 hPa West 32.2 km/h 45.1 km/h 78 % 0.0 mm
16:12 9.2 °C 5.7 °C 1008.0 hPa WNW 11.3 km/h 45.1 km/h 79 % 0.0 mm
16:17 9.2 °C 5.7 °C 1008.4 hPa WSW 19.3 km/h 38.6 km/h 79 % 0.0 mm
16:22 9.2 °C 5.7 °C 1008.4 hPa West 17.7 km/h 38.6 km/h 79 % 0.0 mm
16:27 9.2 °C 5.7 °C 1008.7 hPa West 9.7 km/h 33.8 km/h 79 % 0.0 mm
16:32 9.2 °C 5.7 °C 1008.7 hPa West 8.0 km/h 29.0 km/h 79 % 0.0 mm
16:42 9.1 °C 5.8 °C 1008.7 hPa West 8.0 km/h 22.5 km/h 80 % 0.0 mm
16:47 9.1 °C 5.8 °C 1009.0 hPa WSW 8.0 km/h 22.5 km/h 80 % 0.0 mm
16:52 9.0 °C 6.1 °C 1009.4 hPa WSW 17.7 km/h 22.5 km/h 82 % 0.0 mm
16:57 8.8 °C 6.1 °C 1009.4 hPa West 11.3 km/h 22.5 km/h 83 % 0.0 mm
17:02 8.7 °C 6.0 °C 1009.4 hPa West 19.3 km/h 24.1 km/h 83 % 0.0 mm
17:07 8.7 °C 6.0 °C 1009.4 hPa WSW 14.5 km/h 24.1 km/h 83 % 0.0 mm
17:12 8.4 °C 5.9 °C 1009.4 hPa West 6.4 km/h 29.0 km/h 84 % 0.0 mm
17:22 8.4 °C 5.7 °C 1009.7 hPa WSW 14.5 km/h 29.0 km/h 83 % 0.0 mm
17:32 8.2 °C 5.7 °C 1010.0 hPa West 3.2 km/h 24.1 km/h 84 % 0.0 mm
17:37 8.2 °C 5.8 °C 1010.0 hPa WSW 16.1 km/h 22.5 km/h 85 % 0.0 mm
17:42 8.1 °C 5.7 °C 1010.0 hPa SW 4.8 km/h 20.9 km/h 85 % 0.0 mm
17:47 8.0 °C 5.6 °C 1010.0 hPa WSW 14.5 km/h 20.9 km/h 85 % 0.0 mm
17:52 7.9 °C 5.7 °C 1010.0 hPa WSW 14.5 km/h 20.9 km/h 86 % 0.0 mm
17:57 8.0 °C 5.8 °C 1010.4 hPa WSW 12.9 km/h 20.9 km/h 86 % 0.0 mm
18:02 8.1 °C 5.9 °C 1010.4 hPa SW 12.9 km/h 17.7 km/h 86 % 0.0 mm
18:07 8.2 °C 6.0 °C 1010.4 hPa WSW 16.1 km/h 20.9 km/h 86 % 0.0 mm
18:12 8.2 °C 6.0 °C 1010.7 hPa SSW 8.0 km/h 24.1 km/h 86 % 0.0 mm
18:17 8.3 °C 5.9 °C 1010.7 hPa West 16.1 km/h 25.7 km/h 85 % 0.0 mm
18:22 8.3 °C 5.9 °C 1010.7 hPa West 11.3 km/h 25.7 km/h 85 % 0.0 mm
18:27 8.3 °C 5.9 °C 1010.7 hPa WSW 20.9 km/h 25.7 km/h 85 % 0.0 mm
18:32 8.3 °C 5.9 °C 1011.1 hPa WSW 4.8 km/h 25.7 km/h 85 % 0.0 mm
18:37 8.2 °C 5.8 °C 1011.1 hPa SW 22.5 km/h 25.7 km/h 85 % 0.0 mm
18:47 8.2 °C 5.8 °C 1011.1 hPa West 16.1 km/h 25.7 km/h 85 % 0.0 mm
18:52 8.1 °C 5.7 °C 1011.1 hPa WSW 12.9 km/h 25.7 km/h 85 % 0.0 mm
19:02 8.1 °C 5.7 °C 1011.1 hPa SW 6.4 km/h 22.5 km/h 85 % 0.0 mm
19:12 7.9 °C 5.5 °C 1011.4 hPa WSW 8.0 km/h 22.5 km/h 85 % 0.0 mm
19:17 7.9 °C 5.5 °C 1011.4 hPa SW 6.4 km/h 24.1 km/h 85 % 0.0 mm
19:22 8.0 °C 5.6 °C 1011.4 hPa SW 9.7 km/h 24.1 km/h 85 % 0.0 mm
19:27 8.1 °C 5.7 °C 1011.7 hPa WSW 25.7 km/h 30.6 km/h 85 % 0.0 mm
19:32 8.1 °C 5.7 °C 1011.7 hPa WSW 8.0 km/h 30.6 km/h 85 % 0.0 mm
19:42 8.1 °C 5.7 °C 1011.7 hPa WSW 9.7 km/h 25.7 km/h 85 % 0.0 mm
19:47 8.0 °C 5.6 °C 1012.1 hPa SW 9.7 km/h 24.1 km/h 85 % 0.0 mm
19:52 7.9 °C 5.5 °C 1012.1 hPa WSW 16.1 km/h 24.1 km/h 85 % 0.0 mm
19:57 7.9 °C 5.5 °C 1012.1 hPa WSW 4.8 km/h 17.7 km/h 85 % 0.0 mm
20:02 7.9 °C 5.5 °C 1012.1 hPa WSW 8.0 km/h 19.3 km/h 85 % 0.0 mm
20:07 7.8 °C 5.6 °C 1012.1 hPa SW 4.8 km/h 19.3 km/h 86 % 0.0 mm
20:17 7.8 °C 5.8 °C 1012.1 hPa West 6.4 km/h 17.7 km/h 87 % 0.0 mm
20:22 7.8 °C 5.8 °C 1012.1 hPa SW 16.1 km/h 19.3 km/h 87 % 0.0 mm
20:32 7.9 °C 5.9 °C 1012.4 hPa WSW 14.5 km/h 20.9 km/h 87 % 0.0 mm
20:37 7.9 °C 5.9 °C 1012.4 hPa WNW 9.7 km/h 20.9 km/h 87 % 0.0 mm
20:42 7.9 °C 5.9 °C 1012.4 hPa WSW 9.7 km/h 19.3 km/h 87 % 0.0 mm
20:47 7.9 °C 5.9 °C 1012.4 hPa WSW 9.7 km/h 19.3 km/h 87 % 0.0 mm
20:52 7.9 °C 5.9 °C 1012.4 hPa WSW 12.9 km/h 19.3 km/h 87 % 0.0 mm
20:57 7.9 °C 5.9 °C 1012.4 hPa SW 8.0 km/h 20.9 km/h 87 % 0.0 mm
21:02 7.9 °C 6.0 °C 1012.8 hPa WSW 3.2 km/h 25.7 km/h 88 % 0.0 mm
21:12 7.8 °C 5.9 °C 1012.4 hPa West 9.7 km/h 25.7 km/h 88 % 0.0 mm
21:17 7.8 °C 5.9 °C 1012.8 hPa WSW 14.5 km/h 19.3 km/h 88 % 0.0 mm
21:27 7.7 °C 6.0 °C 1012.8 hPa West 9.7 km/h 24.1 km/h 89 % 0.0 mm
21:32 7.6 °C 6.1 °C 1012.8 hPa SW 12.9 km/h 24.1 km/h 90 % 0.0 mm
21:37 7.6 °C 5.9 °C 1012.8 hPa SW 4.8 km/h 20.9 km/h 89 % 0.0 mm
21:52 7.5 °C 5.8 °C 1012.8 hPa West 9.7 km/h 19.3 km/h 89 % 0.0 mm
21:57 7.5 °C 5.8 °C 1012.8 hPa WSW 9.7 km/h 19.3 km/h 89 % 0.0 mm
22:07 7.6 °C 5.7 °C 1012.8 hPa West 12.9 km/h 19.3 km/h 88 % 0.0 mm
22:12 7.6 °C 5.7 °C 1012.8 hPa WSW 12.9 km/h 19.3 km/h 88 % 0.0 mm
22:17 7.7 °C 5.8 °C 1012.8 hPa West 4.8 km/h 20.9 km/h 88 % 0.0 mm
22:22 7.8 °C 5.8 °C 1012.8 hPa West 9.7 km/h 20.9 km/h 87 % 0.0 mm
22:32 8.0 °C 5.8 °C 1012.8 hPa WNW 6.4 km/h 32.2 km/h 86 % 0.0 mm
22:37 7.9 °C 5.7 °C 1012.8 hPa SW 8.0 km/h 22.5 km/h 86 % 0.0 mm
22:42 7.9 °C 5.7 °C 1012.8 hPa WNW 11.3 km/h 22.5 km/h 86 % 0.0 mm
22:47 7.9 °C 5.7 °C 1012.8 hPa WSW 4.8 km/h 22.5 km/h 86 % 0.0 mm
22:52 8.0 °C 5.8 °C 1012.8 hPa SW 6.4 km/h 22.5 km/h 86 % 0.0 mm
23:02 8.0 °C 5.8 °C 1012.8 hPa WSW 20.9 km/h 24.1 km/h 86 % 0.0 mm
23:07 8.1 °C 5.9 °C 1012.8 hPa WNW 12.9 km/h 24.1 km/h 86 % 0.0 mm
23:12 8.1 °C 5.9 °C 1012.8 hPa SW 9.7 km/h 22.5 km/h 86 % 0.0 mm
23:17 8.1 °C 5.9 °C 1012.8 hPa SW 14.5 km/h 24.1 km/h 86 % 0.0 mm
23:22 8.0 °C 6.0 °C 1012.8 hPa WSW 12.9 km/h 27.4 km/h 87 % 0.0 mm
23:27 7.9 °C 5.9 °C 1012.8 hPa WSW 20.9 km/h 27.4 km/h 87 % 0.0 mm
23:32 7.8 °C 5.9 °C 1012.8 hPa WSW 11.3 km/h 27.4 km/h 88 % 0.0 mm
23:37 7.8 °C 5.9 °C 1012.8 hPa SW 9.7 km/h 27.4 km/h 88 % 0.0 mm
23:42 7.8 °C 5.9 °C 1012.8 hPa WSW 6.4 km/h 24.1 km/h 88 % 0.0 mm
23:47 7.8 °C 6.1 °C 1012.8 hPa SW 14.5 km/h 25.7 km/h 89 % 0.0 mm
23:52 7.8 °C 6.1 °C 1012.8 hPa WSW 14.5 km/h 25.7 km/h 89 % 0.0 mm
23:57 7.8 °C 6.1 °C 1012.8 hPa SW 20.9 km/h 25.7 km/h 89 % 0.0 mm
Meteo18
Compliments of Weather Underground - 4 mb

Script developed by  Jim McMurry - jmcmurry@mwt.net Adapted for the template by  Wim van der Kuil - Leuven-Template.eu

You find our weather info also at:

European Weather Network

Weather Underground

Equipment we use:

Weather-station
Davis Vue

Weather-program
Meteohub

Weather-server
Raspberry PI 2 B+

Provider
1 and 1

Davis Vue

Meteohub

Raspberry PI 2 B+

1 and 1